Time;durP1;ratioP1;P1;durP2;ratioP2;P2;SDS_P1;SDS_P2;PMS_P1;PMS_P2;Temp;Humidity;BMP_temperature;BMP_pressure;BME280_temperature;BME280_humidity;BME280_pressure;Samples;Min_cycle;Max_cycle;Signal;HPM_P1;HPM_P2
2022/03/19 00:01:03;;;;;;;21.23;6.75;;;;;;;-0.63;43.77;102311.72;4845618;29;20058;-79
2022/03/19 00:03:29;;;;;;;11.18;5.20;;;;;;;-0.72;44.15;102300.75;4830241;29;20134;-79
2022/03/19 00:05:56;;;;;;;12.80;5.80;;;;;;;-0.63;43.96;102311.72;4823092;29;20041;-81
2022/03/19 00:08:22;;;;;;;15.02;5.78;;;;;;;-0.49;43.97;102340.00;4827765;29;20041;-77
2022/03/19 00:10:48;;;;;;;14.27;5.45;;;;;;;-0.36;44.16;102346.94;4828752;29;20068;-79
2022/03/19 00:13:14;;;;;;;17.08;5.88;;;;;;;-0.27;43.99;102355.34;4845845;29;20049;-82
2022/03/19 00:15:41;;;;;;;16.27;5.63;;;;;;;-0.20;44.37;102361.81;4833816;29;20066;-82
2022/03/19 00:18:07;;;;;;;13.20;6.53;;;;;;;-0.17;44.67;102355.25;4834861;29;20049;-80
2022/03/19 00:20:36;;;;;;;13.52;6.05;;;;;;;-0.28;43.91;102339.84;4831682;29;20174;-80
2022/03/19 00:23:03;;;;;;;11.57;5.53;;;;;;;-0.19;44.17;102361.03;4861220;29;20052;-80
2022/03/19 00:25:29;;;;;;;11.95;6.00;;;;;;;-0.27;44.16;102337.44;4844801;29;20239;-82
2022/03/19 00:27:55;;;;;;;18.05;6.00;;;;;;;-0.43;44.84;102307.22;4824954;29;20041;-80
2022/03/19 00:30:21;;;;;;;20.70;6.20;;;;;;;-0.20;44.48;102349.00;4834983;29;20234;-81
2022/03/19 00:32:47;;;;;;;13.32;6.07;;;;;;;-0.43;44.64;102326.78;4815142;29;20045;-82
2022/03/19 00:35:13;;;;;;;13.18;5.22;;;;;;;-0.38;44.44;102328.94;4865452;29;20046;-80
2022/03/19 00:37:48;;;;;;;14.30;5.35;;;;;;;-0.31;44.55;102340.53;4850033;29;20042;-79
2022/03/19 00:40:16;;;;;;;22.38;6.75;;;;;;;-0.39;44.48;102327.16;4835439;29;20065;-79
2022/03/19 00:42:48;;;;;;;11.40;5.88;;;;;;;-0.62;44.71;102279.34;4838389;29;20045;-81
2022/03/19 00:45:15;;;;;;;16.48;6.07;;;;;;;-0.48;44.77;102305.97;4834746;29;20086;-81
2022/03/19 00:47:41;;;;;;;13.25;6.53;;;;;;;-0.43;44.82;102319.09;4825066;29;20042;-81
2022/03/19 00:50:08;;;;;;;15.65;6.15;;;;;;;-0.34;44.83;102330.06;4821655;29;20046;-79
2022/03/19 00:52:34;;;;;;;14.85;6.60;;;;;;;-0.18;45.09;102350.03;4852823;29;20053;-79
2022/03/19 00:55:00;;;;;;;19.08;6.97;;;;;;;-0.18;44.74;102345.78;4842071;29;20037;-82
2022/03/19 00:57:40;;;;;;;12.35;5.70;;;;;;;-0.26;44.50;102349.44;4841342;29;20041;-82
2022/03/19 01:00:07;;;;;;;19.30;6.75;;;;;;;-0.56;44.77;102305.38;4837892;29;20045;-80
2022/03/19 01:02:33;;;;;;;16.55;6.72;;;;;;;-0.45;44.60;102329.22;4836234;29;20045;-80
2022/03/19 01:04:59;;;;;;;20.95;6.97;;;;;;;-0.42;44.81;102332.03;4866045;29;20049;-80
2022/03/19 01:07:25;;;;;;;14.70;6.20;;;;;;;-0.35;44.78;102365.00;4865813;29;20290;-81
2022/03/19 01:09:54;;;;;;;21.23;6.28;;;;;;;-0.45;44.79;102357.38;4848585;29;20565;-80
2022/03/19 01:12:19;;;;;;;15.43;6.20;;;;;;;-0.59;45.16;102327.28;4844106;29;20068;-79
2022/03/19 01:14:45;;;;;;;15.30;6.38;;;;;;;-0.64;45.01;102325.25;4832912;29;20045;-79
2022/03/19 01:17:11;;;;;;;20.92;6.70;;;;;;;-0.67;45.01;102335.25;4817485;29;20495;-80
2022/03/19 01:22:21;;;;;;;14.07;6.63;;;;;;;-0.72;45.39;102361.25;4829180;29;20049;-80
2022/03/19 01:24:48;;;;;;;17.00;6.20;;;;;;;-0.75;45.36;102364.44;4813410;29;20098;-81
2022/03/19 01:27:14;;;;;;;21.63;6.65;;;;;;;-0.85;45.87;102350.03;4845559;29;20106;-81
2022/03/19 01:29:40;;;;;;;17.20;6.72;;;;;;;-0.74;45.60;102368.78;4834337;29;20071;-81
2022/03/19 01:32:09;;;;;;;14.85;6.57;;;;;;;-0.85;45.49;102352.59;4830612;29;20506;-80
2022/03/19 01:34:36;;;;;;;20.60;6.57;;;;;;;-1.05;45.29;102330.59;4847556;29;20535;-81
2022/03/19 01:37:03;;;;;;;15.80;6.90;;;;;;;-0.85;45.98;102374.75;4831758;29;20049;-81
2022/03/19 01:39:29;;;;;;;18.27;7.00;;;;;;;-1.15;45.46;102334.09;4855317;29;20097;-79
2022/03/19 01:41:55;;;;;;;23.95;7.15;;;;;;;-1.06;46.36;102345.03;4856431;29;20057;-80
2022/03/19 01:44:30;;;;;;;17.42;6.55;;;;;;;-1.04;46.14;102352.84;4853022;29;20037;-81
2022/03/19 01:47:10;;;;;;;20.58;7.38;;;;;;;-0.89;45.83;102383.84;4836596;29;20160;-81
2022/03/19 01:49:37;;;;;;;17.48;7.43;;;;;;;-0.97;46.10;102369.53;4847157;29;20067;-80
2022/03/19 01:52:05;;;;;;;20.92;9.20;;;;;;;-0.98;46.10;102383.09;4855535;29;20049;-81
2022/03/19 01:54:40;;;;;;;20.85;7.60;;;;;;;-1.23;45.96;102353.03;4830601;29;20053;-79
2022/03/19 01:57:08;;;;;;;19.13;8.30;;;;;;;-1.05;46.28;102394.50;4846428;29;20140;-81
2022/03/19 01:59:36;;;;;;;23.38;8.20;;;;;;;-1.15;46.78;102368.97;4845538;29;20195;-79
2022/03/19 02:02:07;;;;;;;27.30;8.40;;;;;;;-1.05;46.84;102394.50;4844828;29;20418;-80
2022/03/19 02:04:35;;;;;;;24.70;10.00;;;;;;;-1.28;47.06;102356.88;4805056;29;20064;-81
2022/03/19 02:07:01;;;;;;;19.73;7.88;;;;;;;-1.10;46.68;102396.66;4859639;29;20190;-82
2022/03/19 02:09:29;;;;;;;21.75;7.30;;;;;;;-1.20;47.41;102363.50;4827275;29;20065;-80
2022/03/19 02:11:55;;;;;;;23.35;8.88;;;;;;;-0.97;46.98;102397.66;4820767;29;20064;-82
2022/03/19 02:14:22;;;;;;;20.90;7.68;;;;;;;-1.09;46.85;102379.69;4842932;29;20045;-79
2022/03/19 02:16:49;;;;;;;20.33;8.52;;;;;;;-0.94;47.18;102398.78;4845441;29;20049;-82
2022/03/19 02:19:16;;;;;;;23.77;8.75;;;;;;;-1.09;47.10;102374.56;4827824;29;20422;-82
2022/03/19 02:21:45;;;;;;;20.27;8.68;;;;;;;-0.99;46.81;102397.53;4842118;29;20172;-79
2022/03/19 02:26:57;;;;;;;16.75;7.68;;;;;;;-1.22;47.25;102365.94;4844847;29;20049;-81
2022/03/19 02:29:26;;;;;;;21.65;8.75;;;;;;;-1.23;47.24;102373.47;4826952;29;20038;-82
2022/03/19 02:31:59;;;;;;;19.98;7.70;;;;;;;-1.08;47.50;102394.25;4827737;29;20049;-82
2022/03/19 02:34:26;;;;;;;22.15;10.02;;;;;;;-1.11;47.59;102387.25;4827919;29;20056;-80
2022/03/19 02:36:53;;;;;;;21.95;7.93;;;;;;;-1.28;47.38;102359.41;4835273;29;20042;-83
2022/03/19 02:39:28;;;;;;;21.50;8.00;;;;;;;-1.23;47.42;102379.50;4843993;29;20110;-80
2022/03/19 02:41:56;;;;;;;25.38;8.23;;;;;;;-1.24;47.73;102374.22;4842787;29;20045;-81
2022/03/19 02:44:22;;;;;;;24.17;7.72;;;;;;;-1.08;47.97;102401.91;4843823;29;20070;-78
2022/03/19 02:46:54;;;;;;;23.27;8.75;;;;;;;-1.19;47.72;102388.28;4845741;29;20042;-81
2022/03/19 02:49:21;;;;;;;26.50;7.82;;;;;;;-1.10;47.69;102393.22;4843464;29;20042;-82
2022/03/19 02:51:51;;;;;;;17.02;8.48;;;;;;;-1.28;48.24;102372.19;4843384;29;20052;-82
2022/03/19 02:54:19;;;;;;;23.83;7.65;;;;;;;-1.60;47.83;102327.97;4828017;29;20136;-80
2022/03/19 02:56:46;;;;;;;17.63;7.93;;;;;;;-1.36;47.86;102376.69;4846179;29;20567;-80
2022/03/19 02:59:20;;;;;;;21.52;9.10;;;;;;;-1.30;47.96;102386.50;4845113;29;20072;-80
2022/03/19 03:01:51;;;;;;;20.73;8.00;;;;;;;-1.50;47.77;102349.16;4852210;29;20052;-82
2022/03/19 03:04:17;;;;;;;20.35;7.40;;;;;;;-1.32;48.20;102395.75;4827144;29;20544;-80
2022/03/19 03:06:48;;;;;;;17.13;7.65;;;;;;;-1.62;48.23;102349.91;4845415;29;20053;-79
2022/03/19 03:09:17;;;;;;;24.70;8.40;;;;;;;-1.32;48.39;102394.06;4848427;29;20050;-80
2022/03/19 03:11:43;;;;;;;18.75;7.82;;;;;;;-1.41;48.32;102378.88;4838917;29;20293;-81
2022/03/19 03:14:10;;;;;;;24.85;8.60;;;;;;;-1.51;48.19;102363.56;4840996;29;20068;-81
2022/03/19 03:16:38;;;;;;;20.52;7.60;;;;;;;-1.23;48.45;102396.47;4857736;29;20109;-79
2022/03/19 03:19:06;;;;;;;21.88;7.38;;;;;;;-1.33;48.21;102369.28;4834676;29;20050;-81
2022/03/19 03:21:34;;;;;;;19.73;6.80;;;;;;;-1.24;47.96;102390.47;4858771;29;20249;-80
2022/03/19 03:24:01;;;;;;;17.25;6.70;;;;;;;-1.44;48.42;102360.75;4864096;29;20064;-81
2022/03/19 03:26:27;;;;;;;17.98;7.25;;;;;;;-1.32;48.19;102372.75;4844852;29;20045;-79
2022/03/19 03:28:53;;;;;;;17.52;6.80;;;;;;;-1.17;48.76;102393.50;4855688;29;20067;-82
2022/03/19 03:31:20;;;;;;;21.58;7.03;;;;;;;-1.31;48.63;102367.75;4868755;29;20042;-78
2022/03/19 03:33:46;;;;;;;21.27;8.40;;;;;;;-1.24;48.12;102398.16;4857130;29;20083;-81
2022/03/19 03:36:12;;;;;;;14.18;7.35;;;;;;;-1.22;48.53;102398.25;4870996;29;20111;-80
2022/03/19 03:38:39;;;;;;;18.63;7.38;;;;;;;-1.39;48.52;102359.47;4854704;29;20061;-81
2022/03/19 03:41:06;;;;;;;16.27;7.10;;;;;;;-1.09;48.58;102400.13;4853121;29;20054;-81
2022/03/19 03:43:32;;;;;;;16.55;6.60;;;;;;;-1.06;48.70;102405.50;4832845;29;20088;-80
2022/03/19 03:45:59;;;;;;;13.52;7.20;;;;;;;-1.23;47.96;102373.47;4861809;29;20041;-81
2022/03/19 03:48:25;;;;;;;18.88;7.75;;;;;;;-1.25;48.61;102378.47;4832630;29;20057;-82
2022/03/19 03:50:56;;;;;;;17.13;7.50;;;;;;;-1.12;48.61;102402.44;4835222;29;20050;-81
2022/03/19 03:53:25;;;;;;;19.23;7.63;;;;;;;-1.30;48.55;102360.97;4848564;29;20136;-80
2022/03/19 03:55:51;;;;;;;17.88;7.60;;;;;;;-1.54;48.47;102318.25;4846709;29;20057;-79
2022/03/19 03:58:17;;;;;;;18.70;7.05;;;;;;;-1.16;48.38;102385.97;4847659;29;20045;-79
2022/03/19 04:00:43;;;;;;;15.77;6.85;;;;;;;-1.04;48.34;102390.28;4830477;29;20049;-82
2022/03/19 04:03:09;;;;;;;18.67;7.00;;;;;;;-1.00;48.25;102398.34;4850290;29;20042;-80
2022/03/19 04:05:36;;;;;;;15.88;6.55;;;;;;;-1.08;48.19;102397.69;4867348;29;20041;-81
2022/03/19 04:08:06;;;;;;;17.92;6.63;;;;;;;-1.43;48.23;102297.75;4845897;29;20466;-81
2022/03/19 04:10:32;;;;;;;14.35;7.22;;;;;;;-0.77;48.38;102389.91;4846042;29;20535;-81
2022/03/19 04:13:01;;;;;;;19.38;7.05;;;;;;;-1.29;47.82;102279.34;4861842;29;20053;-82
2022/03/19 04:15:27;;;;;;;19.30;7.50;;;;;;;-0.28;48.07;102442.22;4846636;29;20122;-84
2022/03/19 04:17:53;;;;;;;16.30;7.30;;;;;;;-1.14;48.38;102255.75;4816466;29;20041;-82
2022/03/19 04:20:22;;;;;;;15.98;6.93;;;;;;;-0.38;47.91;102367.31;4845554;29;20090;-81
2022/03/19 04:22:49;;;;;;;19.50;7.45;;;;;;;-0.32;47.54;102366.88;4859506;29;20045;-82
2022/03/19 04:25:18;;;;;;;23.30;7.97;;;;;;;0.08;47.35;102420.25;4846472;29;20233;-82
2022/03/19 04:27:49;;;;;;;24.08;7.82;;;;;;;0.27;47.36;102435.31;4859389;29;20049;-81
2022/03/19 04:30:23;;;;;;;19.75;7.30;;;;;;;0.10;47.14;102362.34;4857841;29;20105;-83
2022/03/19 04:32:58;;;;;;;22.45;7.72;;;;;;;-0.32;46.25;102270.53;4845472;29;20057;-79
2022/03/19 04:38:21;;;;;;;30.65;8.43;;;;;;;1.61;46.05;102397.03;4831751;29;20116;-83
2022/03/19 04:40:54;;;;;;;21.85;8.25;;;;;;;2.37;45.48;102433.84;4832670;29;20129;-85
2022/03/19 04:43:40;;;;;;;21.10;8.10;;;;;;;2.28;44.25;102330.44;4856206;29;20049;-88
2022/03/19 04:46:10;;;;;;;24.55;7.43;;;;;;;2.05;43.84;102209.09;4858753;29;20025;-84
2022/03/19 04:48:44;;;;;;;29.02;8.50;;;;;;;3.51;43.26;102431.66;4858173;29;20044;-83
2022/03/19 04:51:14;;;;;;;28.83;7.90;;;;;;;3.96;42.58;102433.47;4835415;29;20044;-83
2022/03/19 04:53:50;;;;;;;24.33;7.93;;;;;;;4.51;42.29;102431.63;4837393;29;20051;-84
2022/03/19 04:56:29;;;;;;;26.42;8.38;;;;;;;5.46;41.19;102311.97;4848275;29;20093;-82
2022/03/19 04:58:59;;;;;;;38.65;11.93;;;;;;;8.01;39.87;102436.25;4829421;29;20056;-79
2022/03/19 05:01:27;;;;;;;26.08;10.75;;;;;;;9.62;37.80;102447.97;4814549;29;20132;-81
2022/03/19 05:03:54;;;;;;;35.22;10.05;;;;;;;10.83;35.84;102398.34;4843267;29;20049;-81
2022/03/19 05:06:22;;;;;;;44.15;13.82;;;;;;;12.01;33.77;102382.63;4828238;29;20054;-80
2022/03/19 05:11:12;;;;;;;30.63;9.15;;;;;;;13.08;32.60;102379.94;4825684;29;20065;-78
2022/03/19 05:11:38;;;;;;;33.03;10.65;;;;;;;14.11;30.94;102348.81;4846295;29;20053;-79
2022/03/19 05:14:04;;;;;;;32.38;9.15;;;;;;;15.39;29.77;102406.63;4873693;29;20049;-80
2022/03/19 05:16:33;;;;;;;25.48;9.10;;;;;;;16.47;28.22;102425.28;4841828;29;20041;-81
2022/03/19 05:19:02;;;;;;;27.90;11.25;;;;;;;16.97;27.19;102372.22;4840261;29;20049;-81
2022/03/19 05:21:32;;;;;;;31.50;11.90;;;;;;;17.94;26.16;102369.84;4844652;29;20068;-80
2022/03/19 05:23:59;;;;;;;30.43;12.00;;;;;;;18.91;24.97;102404.09;4823673;29;20064;-79
2022/03/19 05:26:26;;;;;;;22.80;12.18;;;;;;;19.39;23.95;102366.13;4820407;29;20070;-81
2022/03/19 05:28:54;;;;;;;28.95;11.27;;;;;;;20.36;23.07;102400.72;4838238;29;20077;-80
2022/03/19 05:31:21;;;;;;;44.40;11.45;;;;;;;21.02;22.42;102400.13;4846035;29;20521;-81
2022/03/19 05:34:31;;;;;;;29.40;11.48;;;;;;;22.00;21.59;102424.44;4843990;29;20056;-81
2022/03/19 05:37:01;;;;;;;25.73;11.60;;;;;;;22.79;20.46;102426.69;4836594;29;20102;-82
2022/03/19 05:39:28;;;;;;;29.33;11.17;;;;;;;23.50;19.84;102436.81;4820430;29;20562;-81
2022/03/19 05:41:55;;;;;;;24.13;11.35;;;;;;;23.89;19.10;102387.19;4827493;29;20046;-82
2022/03/19 05:44:21;;;;;;;28.80;12.07;;;;;;;24.82;18.57;102437.22;4812361;29;20054;-80
2022/03/19 05:46:48;;;;;;;20.25;12.43;;;;;;;25.37;17.89;102439.22;4827860;29;20513;-80
2022/03/19 05:49:14;;;;;;;30.27;11.88;;;;;;;26.02;17.39;102421.25;4844134;29;20041;-84
2022/03/19 05:51:40;;;;;;;21.25;11.73;;;;;;;26.51;16.64;102404.53;4827502;29;20070;-80
2022/03/19 05:54:10;;;;;;;19.85;11.55;;;;;;;27.17;15.99;102415.47;4843077;29;20480;-80
2022/03/19 05:56:38;;;;;;;26.42;14.40;;;;;;;27.72;15.53;102413.41;4844778;29;20053;-82
2022/03/19 05:59:04;;;;;;;25.00;14.10;;;;;;;28.26;15.29;102416.56;4832378;29;20106;-79
2022/03/19 06:01:30;;;;;;;22.92;13.63;;;;;;;28.79;14.72;102420.56;4846153;29;20049;-79
2022/03/19 06:03:58;;;;;;;23.58;13.73;;;;;;;29.28;14.19;102420.09;4845653;29;20494;-82
2022/03/19 06:06:26;;;;;;;20.92;11.55;;;;;;;29.58;13.88;102386.56;4829112;29;20076;-78
2022/03/19 06:08:56;;;;;;;17.48;11.05;;;;;;;30.01;13.49;102415.78;4832172;29;20120;-80
2022/03/19 06:11:22;;;;;;;14.05;9.80;;;;;;;30.40;12.92;102403.06;4831936;29;20046;-77
2022/03/19 06:13:49;;;;;;;15.93;9.63;;;;;;;30.73;12.81;102397.75;4831811;29;20136;-79
2022/03/19 06:16:15;;;;;;;17.13;9.95;;;;;;;31.09;11.94;102390.44;4829037;29;20514;-80
2022/03/19 06:18:47;;;;;;;14.75;8.90;;;;;;;31.64;11.81;102417.91;4830025;29;20045;-81
2022/03/19 06:21:18;;;;;;;18.17;9.55;;;;;;;31.98;11.76;102397.13;4842318;29;20144;-82
2022/03/19 06:23:45;;;;;;;27.05;8.95;;;;;;;32.38;11.20;102402.81;4812206;29;20419;-79
2022/03/19 06:26:11;;;;;;;16.38;9.52;;;;;;;32.58;11.32;102416.88;4833744;29;20528;-80
2022/03/19 06:28:38;;;;;;;14.75;9.38;;;;;;;32.79;10.78;102408.44;4791264;29;20040;-79
2022/03/19 06:31:04;;;;;;;13.65;8.70;;;;;;;33.11;10.51;102416.34;4827957;29;20146;-79
2022/03/19 06:33:30;;;;;;;17.88;9.20;;;;;;;33.46;10.88;102407.81;4846086;29;20106;-80
2022/03/19 06:38:41;;;;;;;15.23;8.93;;;;;;;34.50;10.22;102417.09;4846861;29;20046;-80
2022/03/19 06:41:07;;;;;;;16.92;9.10;;;;;;;34.96;9.74;102388.66;4843297;29;20068;-80
2022/03/19 06:43:33;;;;;;;17.20;11.05;;;;;;;35.54;9.80;102404.28;4846010;29;20049;-79
2022/03/19 06:45:59;;;;;;;12.98;8.98;;;;;;;35.72;9.41;102389.34;4846859;29;20049;-79
2022/03/19 06:48:26;;;;;;;9.60;8.07;;;;;;;36.14;9.19;102410.56;4830827;29;20046;-81
2022/03/19 06:50:55;;;;;;;14.52;8.88;;;;;;;36.63;8.58;102414.00;4835055;29;20109;-78
2022/03/19 06:53:23;;;;;;;15.40;8.48;;;;;;;36.90;9.19;102415.47;4858493;29;20045;-79
2022/03/19 06:55:49;;;;;;;15.82;9.27;;;;;;;37.40;8.36;102413.31;4836913;29;20558;-82
2022/03/19 06:58:15;;;;;;;11.18;9.18;;;;;;;37.60;8.56;102385.38;4837907;29;21088;-78
2022/03/19 07:00:48;;;;;;;15.57;9.90;;;;;;;37.82;8.55;102383.53;4850458;29;20052;-80
2022/03/19 07:03:14;;;;;;;13.57;8.85;;;;;;;37.91;7.98;102396.38;4850076;29;20182;-79
2022/03/19 07:05:40;;;;;;;13.00;9.13;;;;;;;38.08;8.47;102403.03;4824202;29;20135;-79
2022/03/19 07:08:09;;;;;;;14.40;9.25;;;;;;;38.34;8.29;102377.31;4834848;29;20053;-80
2022/03/19 07:10:36;;;;;;;12.02;9.20;;;;;;;38.75;8.20;102401.84;4833875;29;20060;-80
2022/03/19 07:13:03;;;;;;;11.40;9.32;;;;;;;38.97;7.58;102398.94;4834557;29;20527;-79
2022/03/19 07:15:32;;;;;;;12.60;9.35;;;;;;;39.22;7.43;102396.69;4838449;29;20079;-80
2022/03/19 07:18:02;;;;;;;16.67;10.20;;;;;;;39.61;7.64;102388.59;4823084;29;20128;-79
2022/03/19 07:20:30;;;;;;;15.68;10.88;;;;;;;40.18;7.37;102389.66;4838213;29;20212;-78
2022/03/19 07:23:04;;;;;;;20.67;10.82;;;;;;;40.61;7.12;102409.22;4838369;29;20914;-80
2022/03/19 07:25:33;;;;;;;15.57;10.23;;;;;;;40.86;7.32;102387.75;4835582;29;20049;-80
2022/03/19 07:28:05;;;;;;;15.07;9.65;;;;;;;40.97;7.27;102401.16;4829410;29;20038;-82
2022/03/19 07:30:31;;;;;;;16.55;10.02;;;;;;;41.06;7.18;102372.09;4861752;29;20046;-81
2022/03/19 07:32:57;;;;;;;16.58;10.52;;;;;;;41.58;7.03;102408.84;4819763;29;20042;-79
2022/03/19 07:35:23;;;;;;;17.15;10.02;;;;;;;41.92;6.89;102410.84;4846858;29;20056;-82
2022/03/19 07:37:50;;;;;;;14.85;10.00;;;;;;;41.73;6.69;102406.41;4847010;29;20033;-80
2022/03/19 07:43:10;;;;;;;14.70;10.20;;;;;;;41.79;6.86;102389.38;4829318;29;20049;-78
2022/03/19 07:45:38;;;;;;;15.93;9.63;;;;;;;41.92;6.44;102395.28;4841150;29;20054;-81
2022/03/19 07:48:08;;;;;;;15.60;9.93;;;;;;;42.21;6.19;102399.59;4855227;29;20042;-79
2022/03/19 07:50:38;;;;;;;;;;;;;;;42.26;6.36;102399.94;4850544;29;20055;-81
2022/03/19 07:53:06;;;;;;;20.42;9.48;;;;;;;42.09;6.71;102389.94;4848158;29;19973;-80
2022/03/19 07:55:35;;;;;;;18.08;9.25;;;;;;;41.54;6.25;102349.06;4845844;29;20077;-80
2022/03/19 07:58:02;;;;;;;18.23;9.18;;;;;;;41.55;6.12;102358.97;4844361;29;20527;-82
2022/03/19 08:00:28;;;;;;;18.88;9.88;;;;;;;41.84;6.55;102382.41;4844438;29;20049;-82
2022/03/19 08:02:54;;;;;;;19.73;8.27;;;;;;;41.91;6.11;102393.56;4822477;29;20502;-81
2022/03/19 08:05:20;;;;;;;15.27;8.25;;;;;;;41.91;6.43;102393.56;4830192;29;20076;-81
2022/03/19 08:07:46;;;;;;;12.93;8.27;;;;;;;42.08;6.15;102380.91;4842781;29;20525;-79
2022/03/19 08:10:13;;;;;;;15.82;8.05;;;;;;;42.47;6.49;102387.81;4818077;29;20046;-77
2022/03/19 08:12:42;;;;;;;14.38;8.57;;;;;;;42.75;6.49;102395.75;4830551;29;20069;-82
2022/03/19 08:15:18;;;;;;;13.32;8.27;;;;;;;43.01;6.44;102373.81;4846391;29;20045;-81
2022/03/19 08:17:50;;;;;;;16.50;8.93;;;;;;;43.18;6.17;102396.59;4823872;29;20050;-81
2022/03/19 08:20:51;;;;;;;11.82;8.75;;;;;;;42.95;6.07;102360.81;4846892;29;20093;-82
2022/03/19 08:23:42;;;;;;;20.52;9.77;;;;;;;43.20;5.93;102393.69;4845912;29;20065;-80
2022/03/19 08:26:58;;;;;;;18.15;9.60;;;;;;;43.11;5.99;102398.31;4823150;29;20070;-82
2022/03/19 08:30:03;;;;;;;26.38;10.25;;;;;;;43.16;6.37;102403.28;4819917;29;20395;-80
2022/03/19 08:32:36;;;;;;;17.65;9.77;;;;;;;42.41;6.26;102377.53;4829425;29;20156;-80
2022/03/19 08:35:02;;;;;;;21.48;10.20;;;;;;;43.00;6.38;102399.50;4830064;29;20080;-81
2022/03/19 08:37:29;;;;;;;11.23;8.95;;;;;;;42.88;6.20;102395.34;4832547;29;20471;-82
2022/03/19 08:40:17;;;;;;;13.55;8.80;;;;;;;43.02;6.12;102399.31;4844293;29;20056;-81
2022/03/19 08:42:52;;;;;;;14.32;9.18;;;;;;;42.89;6.30;102339.56;4827932;29;20394;-82
2022/03/19 08:45:25;;;;;;;18.98;9.27;;;;;;;43.44;6.04;102401.09;4838636;29;20045;-81
2022/03/19 08:47:59;;;;;;;14.38;8.65;;;;;;;43.36;5.88;102400.25;4820180;29;20162;-79
2022/03/19 08:50:31;;;;;;;14.07;9.27;;;;;;;43.33;6.02;102394.09;4848368;29;20071;-82
2022/03/19 08:53:17;;;;;;;17.35;8.40;;;;;;;43.35;5.82;102380.22;4824423;29;20080;-81
2022/03/19 08:55:56;;;;;;;16.50;8.27;;;;;;;43.56;6.11;102387.94;4850127;29;20105;-79
2022/03/19 08:58:30;;;;;;;14.68;8.00;;;;;;;43.47;5.85;102370.63;4844099;29;20042;-79
2022/03/19 09:00:57;;;;;;;16.63;7.70;;;;;;;43.45;5.65;102383.66;4826003;29;20102;-78
2022/03/19 09:03:32;;;;;;;15.45;8.15;;;;;;;43.64;5.57;102411.75;4829647;29;20033;-81
2022/03/19 09:06:01;;;;;;;18.80;8.38;;;;;;;43.29;5.83;102369.94;4844966;29;20646;-83
2022/03/19 09:08:29;;;;;;;12.52;8.20;;;;;;;43.62;5.89;102411.03;4827875;29;20124;-81
2022/03/19 09:10:57;;;;;;;17.73;9.05;;;;;;;43.62;5.53;102406.44;4844495;29;20049;-79
2022/03/19 09:13:27;;;;;;;17.77;7.82;;;;;;;43.27;5.86;102374.75;4842322;29;20053;-84
2022/03/19 09:15:54;;;;;;;12.95;8.38;;;;;;;43.57;5.69;102413.47;4844690;29;20116;-81
2022/03/19 09:18:20;;;;;;;14.07;8.45;;;;;;;43.64;5.77;102395.31;4843084;29;20110;-80
2022/03/19 09:20:47;;;;;;;19.35;8.05;;;;;;;43.77;5.78;102395.66;4829458;29;20057;-85
2022/03/19 09:23:16;;;;;;;;;;;;;;;43.45;5.97;102401.97;4814101;29;20622;-86
2022/03/19 09:25:50;;;;;;;15.77;8.05;;;;;;;42.99;6.01;102394.16;4829069;29;19958;-87
2022/03/19 09:28:19;;;;;;;16.33;11.95;;;;;;;42.38;5.75;102315.78;4845302;29;20069;-83
2022/03/19 09:30:51;;;;;;;19.05;11.75;;;;;;;42.76;5.77;102356.44;4842532;29;20049;-84
2022/03/19 09:33:18;;;;;;;11.75;7.13;;;;;;;42.74;5.62;102314.69;4823855;29;20048;-86
2022/03/19 09:35:54;;;;;;;14.43;7.40;;;;;;;41.83;5.66;102281.47;4843599;29;20052;-86
2022/03/19 09:38:20;;;;;;;11.23;7.38;;;;;;;42.25;5.96;102359.13;4833837;29;20064;-84
2022/03/19 09:40:56;;;;;;;14.45;7.28;;;;;;;41.53;5.64;102286.41;4827439;29;20061;-85
2022/03/19 09:43:47;;;;;;;14.15;7.72;;;;;;;42.21;5.80;102355.88;4842549;29;20049;-84
2022/03/19 09:46:20;;;;;;;19.67;8.23;;;;;;;42.22;6.03;102359.44;4826371;29;20049;-85
2022/03/19 09:48:53;;;;;;;13.82;7.53;;;;;;;42.30;6.11;102379.47;4842210;29;20042;-85
2022/03/19 09:51:23;;;;;;;13.77;7.30;;;;;;;42.29;5.58;102405.09;4813482;29;20071;-87
2022/03/19 09:53:50;;;;;;;11.50;7.03;;;;;;;41.57;6.09;102399.78;4833033;29;20471;-86
2022/03/19 09:56:16;;;;;;;11.68;7.65;;;;;;;41.31;6.19;102325.94;4843983;29;20045;-85
2022/03/19 09:58:42;;;;;;;13.05;7.10;;;;;;;41.27;6.04;102295.38;4849098;29;20037;-84
2022/03/19 10:01:18;;;;;;;10.73;7.13;;;;;;;41.57;6.21;102415.31;4837245;29;21900;-88
2022/03/19 10:04:05;;;;;;;12.00;8.13;;;;;;;41.32;6.16;102387.75;4839518;29;20109;-86
2022/03/19 10:09:18;;;;;;;27.58;8.73;;;;;;;40.98;6.10;102350.19;4826748;29;20054;-87
2022/03/19 10:11:51;;;;;;;11.95;7.80;;;;;;;40.32;6.26;102276.59;4812605;29;20056;-88
2022/03/19 10:14:25;;;;;;;12.13;9.20;;;;;;;40.62;6.31;102319.06;4853463;29;20068;-88
2022/03/19 10:17:17;;;;;;;16.67;7.85;;;;;;;40.30;6.04;102322.22;4838172;29;20075;-86
2022/03/19 10:20:20;;;;;;;11.98;7.53;;;;;;;39.50;6.27;102328.84;4809904;29;20068;-86
2022/03/19 10:22:47;;;;;;;12.02;7.22;;;;;;;36.74;6.51;102344.50;4802922;29;20094;-86
2022/03/19 10:25:18;;;;;;;17.55;7.65;;;;;;;33.87;7.29;102370.94;4856716;29;20430;-85
2022/03/19 10:27:48;;;;;;;12.05;7.30;;;;;;;31.09;8.40;102307.13;4816573;29;20105;-84
2022/03/19 10:30:22;;;;;;;17.35;7.50;;;;;;;28.60;8.85;102237.50;4840382;29;20558;-87
2022/03/19 10:32:56;;;;;;;10.13;7.40;;;;;;;27.28;9.21;102323.34;4817874;29;20037;-83
2022/03/19 10:35:30;;;;;;;15.38;7.32;;;;;;;26.07;10.20;102392.63;4859658;29;20101;-85
2022/03/19 10:37:57;;;;;;;13.02;7.10;;;;;;;24.98;10.52;102394.19;4850573;29;20073;-84
2022/03/19 10:40:41;;;;;;;11.35;7.25;;;;;;;23.20;11.45;102234.69;4841856;29;20041;-82
2022/03/19 10:43:12;;;;;;;10.65;6.88;;;;;;;23.07;11.84;102361.53;4866935;29;20136;-82
2022/03/19 10:45:48;;;;;;;15.27;7.20;;;;;;;22.75;12.27;102432.06;4864136;29;20041;-83
2022/03/19 10:48:28;;;;;;;10.93;7.00;;;;;;;20.79;12.87;102231.03;4823213;29;20046;-84
2022/03/19 10:50:57;;;;;;;12.77;7.43;;;;;;;21.51;13.39;102432.19;4827860;29;20041;-82
2022/03/19 10:53:25;;;;;;;13.90;7.55;;;;;;;19.80;13.72;102232.94;4845561;29;20046;-81
2022/03/19 10:55:52;;;;;;;11.45;7.22;;;;;;;20.44;13.94;102433.28;4863759;29;20048;-82
2022/03/19 10:58:19;;;;;;;22.55;8.20;;;;;;;19.23;14.23;102310.78;4845793;29;20103;-83
2022/03/19 11:00:50;;;;;;;11.73;7.25;;;;;;;19.06;14.45;102350.44;4830713;29;20438;-80
2022/03/19 11:03:30;;;;;;;17.27;7.30;;;;;;;18.95;15.02;102441.94;4837971;29;20045;-83
2022/03/19 11:06:05;;;;;;;13.85;7.45;;;;;;;18.34;15.02;102394.50;4827928;29;20310;-83
2022/03/19 11:08:39;;;;;;;11.27;6.57;;;;;;;17.99;15.52;102391.84;4844161;29;20074;-83
2022/03/19 11:11:33;;;;;;;14.23;6.78;;;;;;;17.70;15.94;102390.91;4844388;29;20050;-84
2022/03/19 11:14:03;;;;;;;9.00;6.28;;;;;;;17.43;16.08;102421.50;4844094;29;20037;-83
2022/03/19 11:16:37;;;;;;;10.02;6.30;;;;;;;17.05;16.34;102418.69;4826251;29;20038;-82
2022/03/19 11:23:12;;;;;;;12.85;6.70;;;;;;;15.14;17.15;102239.34;4774487;29;20062;-84
2022/03/19 11:25:54;;;;;;;9.38;5.20;;;;;;;14.69;17.36;102207.38;4799823;29;20094;-83
2022/03/19 11:28:21;;;;;;;;;;;;;;;15.83;17.45;102419.38;4825975;29;20136;-80
2022/03/19 11:31:15;;;;;;;9.32;5.70;;;;;;;15.65;17.40;102441.94;4853408;29;21094;-81
2022/03/19 11:33:42;;;;;;;9.95;6.30;;;;;;;14.11;17.69;102208.31;4854918;29;20131;-82
2022/03/19 11:36:10;;;;;;;9.20;5.55;;;;;;;15.05;18.04;102389.59;4846755;29;20049;-82
2022/03/19 11:39:05;;;;;;;7.57;5.10;;;;;;;14.79;18.48;102417.16;4839602;29;20052;-82
2022/03/19 11:41:32;;;;;;;10.55;5.90;;;;;;;14.51;18.53;102404.47;4846067;29;20552;-81
2022/03/19 11:44:23;;;;;;;7.80;4.68;;;;;;;14.39;18.97;102423.50;4846445;29;20037;-82
2022/03/19 11:47:01;;;;;;;10.48;4.72;;;;;;;14.13;19.12;102402.06;4846458;29;20037;-81
2022/03/19 11:50:13;;;;;;;8.10;4.88;;;;;;;14.15;19.07;102413.47;4838492;29;20049;-83
2022/03/19 11:52:46;;;;;;;10.80;5.20;;;;;;;14.09;19.13;102413.38;4815522;29;20176;-83
2022/03/19 11:55:20;;;;;;;9.50;4.80;;;;;;;13.45;19.39;102330.19;4845418;29;20049;-81